Startpagina
METAR-TAF:

METAR-TAF

Vliegvelden :

Dole, Frankrijk

breedte: 47-02-34N, lengte: 005-26-06E, hoogte: 196 m

Actueel weer

Dit bericht is 18 minuten geleden gemaakt, om 20:30 UTC
Wind 6 kt uit het zuidwesten
Temperatuur 14°C
Vochtigheid 67%
Druk 1029 hPa
Zicht 10 km of meer
geen wolken onder 1500 m en geen cumulonimbus

METAR: LFGJ 232030Z AUTO 23006KT CAVOK 14/08 Q1029

Tijdstip: 21:48 (20:48 UTC)

Verwachting

Dit bericht is 6 uur en het 48 minuten geleden gemaakt, om 14:00 UTC
Verwachting geldig van 23 om 15 UTC tot 23 om 24 UTC
Wind 15 kt uit het zuidzuidwesten
Zicht 10 km of meer
geen wolken onder 1500 m en geen cumulonimbus

TAF: LFGJ 231400Z 2315/2324 21015KT CAVOK

Waarnemingen en weersverwachtingen van meer dan 4000 vliegvelden (METAR en TAF).

De beschikbare stations zijn de gele en rode punten op de kaart.

Ga met uw muis naar het station om de naam te zien.

Klik dan om waarnemingen en weersverwachtingen te zien.

kaart wijzigen: klik op de groene knoppen met een zwart kruis om in te zoomen, op de groene knop met een streepje om uit te zoomen of op de groene pijlen voor aangrenzende kaarten.


METAR-TAF: